Time;durP1;ratioP1;P1;durP2;ratioP2;P2;SDS_P1;SDS_P2;PMS_P1;PMS_P2;Temp;Humidity;BMP_temperature;BMP_pressure;BME280_temperature;BME280_humidity;BME280_pressure;Samples;Min_cycle;Max_cycle;Signal;HPM_P1;HPM_P2
2022/10/18 00:05:17;;;;;;;3.28;1.50;;;;;;;20.23;49.47;102448.31;16131809;19;130155;-40
2022/10/18 00:10:39;;;;;;;2.45;1.10;;;;;;;20.22;49.79;102446.63;16132514;19;129580;-39
2022/10/18 00:16:03;;;;;;;2.33;1.20;;;;;;;20.20;49.47;102432.91;16125429;19;129335;-39
2022/10/18 00:21:25;;;;;;;1.83;0.90;;;;;;;20.20;49.16;102449.59;16124623;19;129524;-40
2022/10/18 00:26:47;;;;;;;1.85;0.82;;;;;;;20.18;49.27;102454.53;16122606;19;129863;-40
2022/10/18 00:32:10;;;;;;;2.25;0.90;;;;;;;20.18;49.60;102468.44;16122897;19;130612;-40
2022/10/18 00:37:33;;;;;;;5.00;1.02;;;;;;;20.16;49.48;102467.78;16122591;19;128992;-40
2022/10/18 00:42:56;;;;;;;1.92;0.80;;;;;;;20.16;49.61;102453.03;16123535;19;135377;-40
2022/10/18 00:48:19;;;;;;;1.92;0.80;;;;;;;20.15;49.41;102460.53;16122290;19;129388;-42
2022/10/18 00:53:41;;;;;;;1.75;0.65;;;;;;;20.13;49.63;102451.56;16119394;19;129860;-40
2022/10/18 00:59:03;;;;;;;2.53;0.77;;;;;;;20.13;49.65;102457.94;16122991;19;129676;-40
2022/10/18 01:04:24;;;;;;;1.38;0.88;;;;;;;20.11;49.42;102453.69;16122122;19;129951;-40
2022/10/18 01:09:55;;;;;;;1.13;0.68;;;;;;;20.13;49.20;102459.88;16121201;19;129498;-40
2022/10/18 01:15:46;;;;;;;2.30;0.77;;;;;;;20.10;49.42;102455.63;16121028;19;129591;-40
2022/10/18 01:21:20;;;;;;;1.50;0.70;;;;;;;20.09;49.54;102455.84;16120776;19;128825;-40
2022/10/18 01:26:56;;;;;;;2.05;0.80;;;;;;;20.07;49.24;102458.84;16120184;19;129562;-41
2022/10/18 01:32:21;;;;;;;;;;;;;;;20.04;49.62;102458.44;16119115;19;129401;-39
2022/10/18 01:37:46;;;;;;;1.27;0.68;;;;;;;20.06;49.33;102472.97;16121590;19;129467;-40
2022/10/18 01:43:09;;;;;;;1.63;0.50;;;;;;;20.04;49.08;102475.09;16120434;19;129507;-41
2022/10/18 01:48:32;;;;;;;0.85;0.52;;;;;;;20.04;49.57;102472.31;16117185;19;129311;-39
2022/10/18 01:53:54;;;;;;;0.93;0.50;;;;;;;20.04;49.63;102469.53;16118384;19;129550;-40
2022/10/18 01:59:21;;;;;;;1.33;0.60;;;;;;;20.04;49.39;102467.59;16127626;19;130602;-40
2022/10/18 02:05:01;;;;;;;1.65;0.55;;;;;;;20.04;49.34;102475.09;16134489;19;130898;-40
2022/10/18 02:10:37;;;;;;;1.27;0.50;;;;;;;20.04;49.39;102487.06;16133016;19;130883;-40
2022/10/18 02:16:03;;;;;;;1.42;0.65;;;;;;;20.01;49.06;102479.16;16133726;19;130398;-40
2022/10/18 02:21:29;;;;;;;1.27;0.40;;;;;;;20.00;49.56;102471.88;16130767;19;131119;-42
2022/10/18 02:26:50;;;;;;;0.88;0.40;;;;;;;20.00;49.34;102471.88;16130347;19;130352;-40
2022/10/18 02:32:18;;;;;;;0.70;0.47;;;;;;;20.00;49.36;102469.09;16129232;19;129509;-40
2022/10/18 02:37:41;;;;;;;0.30;0.30;;;;;;;19.99;49.51;102470.16;16132026;19;132676;-40
2022/10/18 02:43:04;;;;;;;0.85;0.52;;;;;;;19.98;49.35;102479.56;16131212;19;129814;-40
2022/10/18 02:48:26;;;;;;;0.60;0.40;;;;;;;19.97;49.55;102486.19;16128363;19;130166;-40
2022/10/18 02:53:48;;;;;;;0.90;0.55;;;;;;;19.96;49.38;102476.16;16128318;19;129858;-39
2022/10/18 02:59:11;;;;;;;0.30;0.30;;;;;;;19.96;49.39;102476.16;16122515;19;129733;-40
2022/10/18 03:04:32;;;;;;;0.43;0.30;;;;;;;19.95;49.31;102485.56;16125666;19;129716;-41
2022/10/18 03:09:54;;;;;;;0.85;0.50;;;;;;;19.94;49.12;102495.78;16125426;19;129549;-39
2022/10/18 03:15:16;;;;;;;1.58;0.50;;;;;;;19.94;49.48;102490.25;16129133;19;130413;-40
2022/10/18 03:20:37;;;;;;;0.60;0.50;;;;;;;19.92;49.14;102497.97;16129278;19;130288;-39
2022/10/18 03:26:00;;;;;;;0.75;0.50;;;;;;;19.92;49.33;102492.41;16127122;19;129536;-39
2022/10/18 03:31:22;;;;;;;0.80;0.40;;;;;;;19.91;49.37;102496.25;16124840;19;130323;-40
2022/10/18 03:36:43;;;;;;;0.75;0.57;;;;;;;19.91;49.20;102492.59;16126872;19;129368;-40
2022/10/18 03:42:05;;;;;;;0.40;0.30;;;;;;;19.90;49.49;102483.44;16124140;19;129454;-39
2022/10/18 03:47:27;;;;;;;0.65;0.50;;;;;;;19.90;49.31;102490.91;16124166;19;130669;-40
2022/10/18 03:52:49;;;;;;;1.40;0.60;;;;;;;19.90;49.50;102499.22;16124851;19;130065;-41
2022/10/18 03:58:10;;;;;;;0.60;0.35;;;;;;;19.89;49.29;102492.84;16124535;19;129557;-39
2022/10/18 04:03:32;;;;;;;3.00;0.80;;;;;;;19.88;49.30;102495.84;16124847;19;129381;-41
2022/10/18 04:08:54;;;;;;;1.42;0.50;;;;;;;19.89;49.13;102503.06;16126407;19;130610;-39
2022/10/18 04:14:16;;;;;;;0.77;0.50;;;;;;;19.87;49.30;102503.31;16126269;19;129515;-40
2022/10/18 04:19:39;;;;;;;0.70;0.45;;;;;;;19.86;49.23;102504.38;16126157;19;129306;-40
2022/10/18 04:25:01;;;;;;;0.50;0.45;;;;;;;19.87;49.07;102522.75;16123963;19;129716;-40
2022/10/18 04:30:23;;;;;;;0.30;0.30;;;;;;;19.86;49.13;102518.25;16119148;19;129277;-39
2022/10/18 04:35:45;;;;;;;1.10;0.70;;;;;;;19.85;49.25;102522.09;16121752;19;129683;-40
2022/10/18 04:41:07;;;;;;;1.33;0.40;;;;;;;19.85;49.24;102508.22;16121145;19;129125;-40
2022/10/18 04:46:29;;;;;;;0.85;0.50;;;;;;;19.84;49.27;102512.94;16121965;19;129192;-41
2022/10/18 04:51:50;;;;;;;0.60;0.50;;;;;;;19.84;48.97;102517.63;16121751;19;129598;-39
2022/10/18 04:57:12;;;;;;;0.95;0.50;;;;;;;19.84;49.06;102517.63;16120255;19;130099;-40
2022/10/18 05:02:34;;;;;;;0.32;0.30;;;;;;;19.83;49.44;102515.91;16123291;19;129533;-40
2022/10/18 05:07:55;;;;;;;0.35;0.28;;;;;;;19.83;49.43;102527.00;16118058;19;130433;-40
2022/10/18 05:13:17;;;;;;;0.50;0.35;;;;;;;19.82;49.04;102534.50;16119079;19;129437;-40
2022/10/18 05:18:39;;;;;;;2.58;0.60;;;;;;;19.83;49.41;102532.56;16118941;19;129227;-39
2022/10/18 05:24:00;;;;;;;0.93;0.50;;;;;;;19.83;49.21;102529.78;16119989;19;131403;-41
2022/10/18 05:29:23;;;;;;;1.85;0.60;;;;;;;19.82;49.25;102519.75;16117980;19;129457;-39
2022/10/18 05:34:45;;;;;;;0.85;0.50;;;;;;;19.81;49.43;102527.25;16134025;19;129483;-40
2022/10/18 05:40:07;;;;;;;4.15;0.40;;;;;;;19.81;49.39;102527.25;16134051;19;129691;-39
2022/10/18 05:45:29;;;;;;;4.38;0.47;;;;;;;19.79;49.02;102520.19;16131406;19;131292;-39
2022/10/18 05:50:51;;;;;;;5.60;0.60;;;;;;;19.79;49.63;102522.97;16133617;19;129320;-40
2022/10/18 05:56:13;;;;;;;5.03;1.30;;;;;;;19.80;49.33;102527.47;16131564;19;129480;-39
2022/10/18 06:01:36;;;;;;;1.13;0.60;;;;;;;19.79;49.14;102531.31;16134096;19;129127;-39
2022/10/18 06:06:57;;;;;;;2.70;0.80;;;;;;;19.78;49.16;102530.44;16133091;19;129670;-39
2022/10/18 06:12:19;;;;;;;0.75;0.50;;;;;;;19.78;49.36;102535.16;16132580;19;129657;-39
2022/10/18 06:17:41;;;;;;;0.75;0.60;;;;;;;19.77;49.47;102539.00;16133670;19;129799;-39
2022/10/18 06:23:02;;;;;;;1.92;0.70;;;;;;;19.75;49.16;102538.34;16130976;19;129724;-39
2022/10/18 06:28:25;;;;;;;3.55;0.60;;;;;;;19.76;49.19;102531.72;16130867;19;129430;-39
2022/10/18 06:33:47;;;;;;;4.95;0.63;;;;;;;19.74;49.31;102540.28;16130652;19;129333;-39
2022/10/18 06:39:09;;;;;;;1.38;0.50;;;;;;;19.74;49.20;102556.06;16129234;19;129429;-39
2022/10/18 06:44:31;;;;;;;1.58;0.40;;;;;;;19.75;49.42;102568.91;16131327;19;130344;-39
2022/10/18 06:49:52;;;;;;;1.40;0.50;;;;;;;19.73;49.10;102559.91;16129560;19;129372;-39
2022/10/18 06:55:14;;;;;;;2.35;0.40;;;;;;;19.73;49.35;102580.22;16131550;19;130020;-39
2022/10/18 07:00:36;;;;;;;0.73;0.50;;;;;;;19.73;49.17;102598.78;16132628;19;131004;-39
2022/10/18 07:06:00;;;;;;;1.95;0.35;;;;;;;19.72;49.10;102597.09;16128573;19;129588;-39
2022/10/18 07:11:25;;;;;;;0.73;0.50;;;;;;;19.76;49.48;102599.22;16127733;19;129168;-39
2022/10/18 07:16:46;;;;;;;1.00;0.35;;;;;;;19.87;49.24;102594.97;16130153;19;129304;-39
2022/10/18 07:22:08;;;;;;;0.40;0.30;;;;;;;19.86;49.07;102601.56;16129024;19;129426;-39
2022/10/18 07:27:30;;;;;;;1.55;0.38;;;;;;;19.87;49.26;102617.19;16129280;19;129839;-39
2022/10/18 07:32:52;;;;;;;0.77;0.45;;;;;;;19.87;49.18;102624.66;16131725;19;129681;-39
2022/10/18 07:38:13;;;;;;;0.57;0.30;;;;;;;20.04;48.68;102636.22;16128349;19;128826;-39
2022/10/18 07:43:35;;;;;;;1.25;0.40;;;;;;;20.47;48.01;102637.69;16129056;19;130724;-39
2022/10/18 07:48:58;;;;;;;0.57;0.38;;;;;;;22.20;44.42;102640.56;16128519;19;129071;-39
2022/10/18 07:54:21;;;;;;;1.95;0.30;;;;;;;23.51;42.43;102655.31;16125234;19;129257;-39
2022/10/18 07:59:45;;;;;;;0.73;0.38;;;;;;;24.97;39.72;102660.56;16126976;19;130680;-40
2022/10/18 08:05:07;;;;;;;0.80;0.40;;;;;;;25.44;38.55;102671.59;16125066;19;128816;-37
2022/10/18 08:10:29;;;;;;;0.73;0.50;;;;;;;26.15;36.99;102661.06;16124249;19;129780;-37
2022/10/18 08:15:57;;;;;;;1.15;0.60;;;;;;;26.78;36.18;102680.53;16122772;19;129386;-37
2022/10/18 08:21:20;;;;;;;2.72;0.98;;;;;;;25.66;37.32;102700.88;16125507;19;130477;-37
2022/10/18 08:26:42;;;;;;;1.35;0.90;;;;;;;24.15;39.13;102688.31;16123877;19;129678;-37
2022/10/18 08:32:04;;;;;;;3.30;1.10;;;;;;;23.18;41.17;102695.75;16122728;19;129395;-39
2022/10/18 08:37:26;;;;;;;0.82;0.60;;;;;;;22.53;42.35;102705.47;16124007;19;129573;-39
2022/10/18 08:43:01;;;;;;;1.63;0.85;;;;;;;22.06;43.15;102701.16;16122769;19;129699;-39
2022/10/18 08:48:32;;;;;;;1.40;0.70;;;;;;;21.71;44.11;102712.75;16120850;19;130104;-39
2022/10/18 08:54:03;;;;;;;1.73;1.10;;;;;;;21.46;44.49;102719.09;16125641;19;129477;-39
2022/10/18 08:59:46;;;;;;;3.97;1.30;;;;;;;21.25;45.11;102722.19;16123437;19;129935;-39
2022/10/18 09:05:42;;;;;;;2.72;1.17;;;;;;;21.11;45.42;102710.28;16121876;19;129310;-39
2022/10/18 09:11:22;;;;;;;3.35;1.25;;;;;;;20.96;46.04;102718.84;16139264;19;129517;-38
2022/10/18 09:17:18;;;;;;;2.30;0.85;;;;;;;20.84;46.18;102722.31;16137339;19;129273;-39
2022/10/18 09:22:54;;;;;;;2.73;1.20;;;;;;;20.78;46.56;102728.75;16138248;19;131164;-38
2022/10/18 09:28:32;;;;;;;3.30;1.03;;;;;;;20.71;46.80;102722.31;16137305;19;130547;-39
2022/10/18 09:34:04;;;;;;;4.82;1.50;;;;;;;20.64;46.43;102733.44;16134058;19;129398;-39
2022/10/18 09:39:36;;;;;;;2.38;1.00;;;;;;;20.60;46.74;102735.81;16133938;19;129414;-39
2022/10/18 09:45:16;;;;;;;2.90;1.00;;;;;;;20.55;46.71;102729.19;16135146;19;129906;-40
2022/10/18 09:50:49;;;;;;;3.78;1.25;;;;;;;20.50;46.92;102732.63;16133188;19;129299;-39
2022/10/18 09:56:21;;;;;;;1.52;0.70;;;;;;;20.48;46.91;102734.75;16132580;19;129509;-38
2022/10/18 10:01:43;;;;;;;2.95;1.15;;;;;;;20.43;47.17;102731.78;16133538;19;129643;-38
2022/10/18 10:07:08;;;;;;;2.38;0.70;;;;;;;20.41;47.15;102736.69;16133074;19;130124;-39
2022/10/18 10:12:32;;;;;;;3.28;0.80;;;;;;;20.38;47.26;102739.91;16134297;19;128970;-39
2022/10/18 10:17:57;;;;;;;4.22;0.85;;;;;;;20.36;47.60;102733.69;16133506;19;129577;-38
2022/10/18 10:23:49;;;;;;;2.78;0.77;;;;;;;20.35;47.34;102734.75;16131794;19;129724;-39
2022/10/18 10:29:56;;;;;;;1.17;0.50;;;;;;;20.32;47.37;102737.94;16132991;19;129415;-38
2022/10/18 10:35:31;;;;;;;3.47;0.77;;;;;;;20.27;47.48;102733.03;16131403;19;129746;-39
2022/10/18 10:41:21;;;;;;;2.60;0.90;;;;;;;20.25;47.69;102747.16;16132074;19;129243;-39
2022/10/18 10:46:44;;;;;;;2.80;0.52;;;;;;;20.24;47.56;102736.28;16133711;19;130025;-38
2022/10/18 10:52:06;;;;;;;1.27;0.32;;;;;;;20.22;47.88;102741.19;16131470;19;129441;-39
2022/10/18 10:57:35;;;;;;;3.05;0.60;;;;;;;20.22;47.51;102744.81;16132624;19;129768;-39
2022/10/18 11:03:12;;;;;;;0.90;0.47;;;;;;;20.21;47.84;102751.44;16132894;19;129277;-39
2022/10/18 11:08:51;;;;;;;1.35;0.40;;;;;;;20.19;48.11;102736.88;16129015;19;129027;-39
2022/10/18 11:14:28;;;;;;;1.27;0.40;;;;;;;20.18;47.74;102751.88;16130961;19;129376;-39
2022/10/18 11:20:10;;;;;;;1.50;0.40;;;;;;;20.17;47.97;102750.16;16131132;19;129820;-39
2022/10/18 11:26:00;;;;;;;2.90;0.73;;;;;;;20.16;48.20;102745.66;16130228;19;130405;-39
2022/10/18 11:31:36;;;;;;;2.78;0.50;;;;;;;20.14;48.01;102745.03;16127092;19;129692;-39
2022/10/18 11:37:35;;;;;;;1.13;0.38;;;;;;;20.14;48.01;102739.47;16132674;19;129730;-39
2022/10/18 11:43:33;;;;;;;3.15;0.50;;;;;;;20.13;48.08;102737.75;16129471;19;129506;-39
2022/10/18 11:49:42;;;;;;;1.02;0.30;;;;;;;20.11;48.13;102740.75;16123023;19;129685;-39
2022/10/18 11:55:34;;;;;;;2.65;0.40;;;;;;;20.11;48.34;102735.19;16127611;19;129983;-39
2022/10/18 12:01:05;;;;;;;0.85;0.40;;;;;;;20.10;47.93;102732.59;16128083;19;129896;-38
2022/10/18 12:06:35;;;;;;;1.98;0.50;;;;;;;20.11;48.06;102726.84;16123759;19;130310;-39
2022/10/18 12:12:30;;;;;;;2.72;0.50;;;;;;;20.11;48.41;102728.75;16125212;19;130150;-39
2022/10/18 12:17:54;;;;;;;1.65;0.60;;;;;;;20.09;48.06;102719.78;16126254;19;131128;-39
2022/10/18 12:23:28;;;;;;;1.40;0.37;;;;;;;20.08;48.21;102724.50;16126060;19;129648;-39
2022/10/18 12:28:59;;;;;;;1.98;0.47;;;;;;;20.07;48.23;102725.56;16124296;19;130043;-39
2022/10/18 12:34:21;;;;;;;0.95;0.63;;;;;;;20.05;48.39;102724.91;16122523;19;129159;-38
2022/10/18 12:39:50;;;;;;;3.05;0.80;;;;;;;20.06;48.03;102720.22;16120146;19;130235;-38
2022/10/18 12:45:34;;;;;;;0.77;0.40;;;;;;;20.05;47.97;102718.50;16125005;19;130030;-38
2022/10/18 12:51:04;;;;;;;2.03;0.60;;;;;;;20.04;48.10;102706.53;16120674;19;130481;-39
2022/10/18 12:56:26;;;;;;;3.95;0.70;;;;;;;20.02;48.07;102708.66;16112744;19;129422;-39
2022/10/18 13:01:50;;;;;;;1.48;0.65;;;;;;;20.03;48.26;102712.31;16120745;19;129911;-38
2022/10/18 13:07:12;;;;;;;1.30;0.50;;;;;;;20.01;47.79;102700.56;16119540;19;129458;-38
2022/10/18 13:12:52;;;;;;;2.60;0.50;;;;;;;20.01;47.92;102700.56;16119235;19;129506;-39
2022/10/18 13:18:28;;;;;;;1.88;0.60;;;;;;;20.02;47.71;102702.25;16113518;19;130344;-39
2022/10/18 13:24:12;;;;;;;2.85;0.43;;;;;;;20.01;48.08;102690.28;16117397;19;129894;-39
2022/10/18 13:29:46;;;;;;;2.78;0.50;;;;;;;20.00;47.99;102688.56;16119023;19;130157;-39
2022/10/18 13:35:53;;;;;;;2.80;0.50;;;;;;;20.01;47.84;102701.38;16116338;19;129462;-39
2022/10/18 13:41:22;;;;;;;1.60;0.50;;;;;;;19.98;47.71;102687.91;16120643;19;133639;-39
2022/10/18 13:47:04;;;;;;;2.78;0.85;;;;;;;19.98;47.83;102687.91;16117384;19;129724;-39
2022/10/18 13:52:32;;;;;;;2.03;0.60;;;;;;;19.99;47.70;102692.41;16118989;19;131176;-39
2022/10/18 13:58:35;;;;;;;1.60;0.70;;;;;;;19.98;47.65;102690.69;16133342;19;129203;-39
2022/10/18 14:04:29;;;;;;;2.90;0.50;;;;;;;19.97;47.79;102700.09;16130668;19;130267;-39
2022/10/18 14:09:52;;;;;;;4.13;0.60;;;;;;;19.95;47.87;102703.06;16131521;19;129203;-38
2022/10/18 14:15:23;;;;;;;1.48;0.38;;;;;;;19.97;47.69;102705.66;16132708;19;129636;-39
2022/10/18 14:20:51;;;;;;;4.88;0.80;;;;;;;19.97;47.91;102706.50;16133253;19;129846;-39
2022/10/18 14:26:33;;;;;;;3.92;0.60;;;;;;;19.95;47.51;102697.50;16131701;19;130364;-39
2022/10/18 14:31:56;;;;;;;2.42;0.60;;;;;;;19.94;47.69;102703.28;16129672;19;129554;-39
2022/10/18 14:37:30;;;;;;;2.38;0.52;;;;;;;19.94;47.54;102706.91;16130355;19;129694;-39
2022/10/18 14:42:52;;;;;;;5.93;0.70;;;;;;;19.93;47.74;102715.47;16133306;19;129919;-39
2022/10/18 14:48:19;;;;;;;1.90;0.50;;;;;;;19.93;47.34;102699.66;16129780;19;129259;-39
2022/10/18 14:53:41;;;;;;;2.55;0.50;;;;;;;19.92;47.66;102700.72;16126648;19;129477;-39
2022/10/18 14:59:09;;;;;;;6.20;0.70;;;;;;;19.92;47.24;102702.63;16129968;19;129494;-39
2022/10/18 15:04:34;;;;;;;1.92;0.75;;;;;;;19.91;47.41;102696.25;16130092;19;129212;-39
2022/10/18 15:09:59;;;;;;;2.33;0.80;;;;;;;19.92;47.60;102692.41;16129571;19;130896;-39
2022/10/18 15:15:26;;;;;;;7.67;1.13;;;;;;;19.92;47.05;102695.19;16130250;19;130891;-39
2022/10/18 15:21:20;;;;;;;3.35;0.65;;;;;;;19.92;47.32;102686.84;16129420;19;129555;-38
2022/10/18 15:26:46;;;;;;;2.78;0.70;;;;;;;19.90;47.19;102685.31;16129733;19;129349;-38
2022/10/18 15:32:26;;;;;;;6.03;0.85;;;;;;;19.89;46.80;102681.72;16126112;19;130140;-37
2022/10/18 15:37:48;;;;;;;4.05;0.80;;;;;;;19.87;46.86;102678.28;16126624;19;129416;-39
2022/10/18 15:43:36;;;;;;;2.65;0.68;;;;;;;19.88;46.79;102691.09;16124292;19;129574;-39
2022/10/18 15:49:23;;;;;;;6.47;0.82;;;;;;;19.87;46.66;102686.63;16126317;19;129738;-39
2022/10/18 15:54:44;;;;;;;;;;;;;;;19.83;46.85;102685.31;16126834;19;130514;-38
2022/10/18 16:00:21;;;;;;;5.45;0.90;;;;;;;19.86;47.13;102687.69;16124735;19;129348;-38
2022/10/18 16:05:43;;;;;;;4.10;0.82;;;;;;;19.85;46.73;102694.28;16123715;19;129646;-38
2022/10/18 16:11:06;;;;;;;3.35;0.88;;;;;;;19.84;46.96;102700.91;16125156;19;129564;-39
2022/10/18 16:16:28;;;;;;;2.75;0.80;;;;;;;19.83;46.89;102704.75;16121646;19;130616;-39
2022/10/18 16:21:53;;;;;;;7.70;1.00;;;;;;;19.83;46.52;102693.66;16124616;19;130117;-39
2022/10/18 16:27:15;;;;;;;4.50;0.70;;;;;;;19.82;46.99;102716.94;16122698;19;134659;-38
2022/10/18 16:32:37;;;;;;;2.88;0.60;;;;;;;19.82;47.13;102716.94;16124538;19;130706;-39
2022/10/18 16:37:59;;;;;;;5.35;0.82;;;;;;;19.81;46.95;102723.59;16120718;19;129647;-39
2022/10/18 16:43:21;;;;;;;2.72;0.70;;;;;;;19.81;47.10;102726.34;16115194;19;131524;-38
2022/10/18 16:48:44;;;;;;;7.25;1.10;;;;;;;19.83;47.02;102736.19;16117240;19;130184;-38
2022/10/18 16:54:05;;;;;;;1.15;0.50;;;;;;;19.90;47.35;102733.41;16116693;19;130124;-38
2022/10/18 16:59:30;;;;;;;7.70;0.55;;;;;;;20.06;47.53;102740.53;16115598;19;129582;-37
2022/10/18 17:04:51;;;;;;;4.68;0.60;;;;;;;20.27;47.20;102744.16;16118810;19;129512;-38
2022/10/18 17:10:16;;;;;;;6.15;0.90;;;;;;;20.44;46.84;102752.91;16116974;19;130008;-38
2022/10/18 17:15:41;;;;;;;5.07;0.80;;;;;;;20.59;46.96;102753.56;16120792;19;130543;-38
2022/10/18 17:21:02;;;;;;;7.22;1.08;;;;;;;20.68;46.88;102756.09;16120975;19;129676;-39
2022/10/18 17:26:25;;;;;;;7.38;0.70;;;;;;;20.73;46.48;102767.44;16120837;19;129558;-38
2022/10/18 17:31:49;;;;;;;10.60;1.23;;;;;;;20.74;46.95;102769.16;16131898;19;130327;-39
2022/10/18 17:37:12;;;;;;;12.05;1.35;;;;;;;20.76;46.81;102769.84;16131816;19;129485;-39
2022/10/18 17:42:34;;;;;;;6.53;0.70;;;;;;;20.74;46.92;102766.38;16134231;19;130731;-39
2022/10/18 17:47:55;;;;;;;7.50;0.90;;;;;;;20.71;47.24;102767.69;16135661;19;131056;-39
2022/10/18 17:53:21;;;;;;;5.40;0.85;;;;;;;20.69;47.24;102780.94;16135440;19;130603;-38
2022/10/18 17:58:44;;;;;;;8.02;0.85;;;;;;;20.66;47.44;102786.09;16134930;19;129791;-39
2022/10/18 18:04:06;;;;;;;9.13;0.60;;;;;;;20.62;47.36;102784.78;16131470;19;129759;-38
2022/10/18 18:09:28;;;;;;;13.13;0.98;;;;;;;20.59;47.13;102786.94;16131871;19;130667;-39
2022/10/18 18:14:49;;;;;;;10.35;1.08;;;;;;;20.56;47.18;102781.78;16132495;19;130697;-39
2022/10/18 18:20:11;;;;;;;6.13;0.77;;;;;;;20.53;47.41;102785.03;16131795;19;129514;-38
2022/10/18 18:25:33;;;;;;;18.55;1.40;;;;;;;20.50;47.41;102791.00;16132386;19;130318;-39
2022/10/18 18:30:55;;;;;;;3.67;0.95;;;;;;;20.49;47.35;102797.63;16135502;19;130971;-38
2022/10/18 18:36:17;;;;;;;5.65;0.80;;;;;;;20.49;47.58;102791.22;16131686;19;129768;-39
2022/10/18 18:41:38;;;;;;;9.63;1.10;;;;;;;20.48;47.70;102790.34;16133104;19;130402;-39
2022/10/18 18:47:00;;;;;;;12.90;1.38;;;;;;;20.48;47.84;102786.72;16132858;19;134854;-39
2022/10/18 18:52:22;;;;;;;10.10;1.42;;;;;;;20.49;48.00;102796.78;16128290;19;129485;-39
2022/10/18 18:57:44;;;;;;;10.93;1.25;;;;;;;20.54;47.63;102783.94;16131718;19;130299;-39
2022/10/18 19:03:06;;;;;;;9.75;1.25;;;;;;;20.63;47.40;102789.28;16133279;19;129854;-39
2022/10/18 19:08:28;;;;;;;16.58;1.00;;;;;;;20.72;47.48;102788.00;16128281;19;129103;-40
2022/10/18 19:13:50;;;;;;;11.38;1.38;;;;;;;20.79;47.34;102783.31;16127818;19;130562;-39
2022/10/18 19:19:14;;;;;;;5.07;0.85;;;;;;;20.87;47.03;102777.53;16127037;19;129957;-38
2022/10/18 19:24:36;;;;;;;6.57;1.40;;;;;;;20.88;46.66;102784.81;16127589;19;129466;-38
2022/10/18 19:29:57;;;;;;;5.13;1.65;;;;;;;20.93;46.77;102791.63;16129069;19;129108;-38
2022/10/18 19:35:19;;;;;;;7.47;1.27;;;;;;;20.99;46.64;102788.00;16129057;19;129428;-39
2022/10/18 19:40:41;;;;;;;9.23;1.27;;;;;;;21.05;46.58;102784.31;16125187;19;129625;-38
2022/10/18 19:46:03;;;;;;;4.55;1.10;;;;;;;21.11;46.57;102782.63;16125148;19;129761;-38
2022/10/18 19:51:25;;;;;;;6.25;1.10;;;;;;;21.11;46.30;102789.03;16122864;19;129867;-38
2022/10/18 19:56:49;;;;;;;8.40;1.23;;;;;;;21.12;46.80;102784.31;16121993;19;130605;-38
2022/10/18 20:02:13;;;;;;;9.80;1.45;;;;;;;21.09;46.63;102771.69;16124028;19;129874;-38
2022/10/18 20:07:35;;;;;;;4.28;1.25;;;;;;;21.05;46.70;102764.84;16128191;19;129492;-38
2022/10/18 20:12:57;;;;;;;7.47;1.00;;;;;;;21.02;46.47;102770.88;16123381;19;129069;-38
2022/10/18 20:18:19;;;;;;;8.30;1.10;;;;;;;20.99;47.07;102768.50;16123157;19;130022;-38
2022/10/18 20:23:43;;;;;;;8.07;1.17;;;;;;;20.96;47.08;102769.81;16123500;19;130818;-38
2022/10/18 20:29:06;;;;;;;3.00;0.93;;;;;;;20.93;46.96;102767.47;16122286;19;129809;-38
2022/10/18 20:34:28;;;;;;;9.35;0.88;;;;;;;20.89;46.91;102772.59;16122493;19;130567;-38
2022/10/18 20:39:49;;;;;;;10.35;1.10;;;;;;;20.87;46.73;102774.75;16121611;19;130299;-39
2022/10/18 20:45:14;;;;;;;10.75;1.30;;;;;;;20.80;46.85;102776.66;16121799;19;130150;-38
2022/10/18 20:50:39;;;;;;;6.43;1.05;;;;;;;20.74;46.67;102794.19;16121180;19;130235;-38
2022/10/18 20:56:08;;;;;;;6.97;1.10;;;;;;;20.68;46.96;102795.03;16121996;19;129364;-38
2022/10/18 21:01:32;;;;;;;8.23;1.38;;;;;;;20.62;46.97;102785.63;16120817;19;129060;-39
2022/10/18 21:06:54;;;;;;;3.97;0.90;;;;;;;20.56;46.66;102775.38;16122322;19;129723;-38
2022/10/18 21:12:16;;;;;;;6.43;1.13;;;;;;;20.53;47.10;102785.03;16117838;19;129870;-39
2022/10/18 21:17:38;;;;;;;8.65;1.20;;;;;;;20.49;46.69;102778.16;16118599;19;129188;-39
2022/10/18 21:22:59;;;;;;;5.80;0.77;;;;;;;20.46;47.11;102770.25;16121653;19;129914;-38
2022/10/18 21:28:21;;;;;;;5.40;0.80;;;;;;;20.42;47.08;102768.97;16120713;19;129501;-38
2022/10/18 21:33:43;;;;;;;3.45;0.77;;;;;;;20.40;47.11;102783.06;16120123;19;129290;-38
2022/10/18 21:39:07;;;;;;;2.35;0.60;;;;;;;20.39;47.05;102783.31;16120789;19;131072;-38
2022/10/18 21:44:29;;;;;;;3.58;0.93;;;;;;;20.35;46.86;102777.31;16119167;19;129687;-39
2022/10/18 21:49:51;;;;;;;1.88;0.60;;;;;;;20.32;46.91;102779.66;16114806;19;129666;-38
2022/10/18 21:55:13;;;;;;;3.58;0.70;;;;;;;20.29;46.87;102784.59;16116534;19;130694;-39
2022/10/18 22:00:34;;;;;;;3.17;0.60;;;;;;;20.26;47.18;102775.78;16118331;19;129366;-38
2022/10/18 22:06:02;;;;;;;2.38;0.85;;;;;;;20.23;46.71;102777.09;16116627;19;129273;-39
2022/10/18 22:11:29;;;;;;;1.40;0.55;;;;;;;20.21;47.22;102772.81;16116817;19;129054;-39
2022/10/18 22:16:51;;;;;;;1.55;0.60;;;;;;;20.19;46.72;102774.94;16127751;19;129534;-38
2022/10/18 22:22:13;;;;;;;1.35;0.52;;;;;;;20.16;47.04;102759.56;16129187;19;129629;-39
2022/10/18 22:27:34;;;;;;;1.85;0.82;;;;;;;20.14;47.07;102756.13;16130551;19;130428;-38
2022/10/18 22:32:57;;;;;;;3.25;0.57;;;;;;;20.11;46.95;102765.75;16130792;19;129485;-38
2022/10/18 22:38:18;;;;;;;2.17;0.63;;;;;;;20.10;46.70;102750.16;16131522;19;130301;-38
2022/10/18 22:43:40;;;;;;;2.22;0.70;;;;;;;20.09;46.86;102761.47;16130881;19;130651;-38
2022/10/18 22:49:02;;;;;;;1.90;0.82;;;;;;;20.07;46.83;102760.81;16128621;19;129603;-38
2022/10/18 22:54:24;;;;;;;2.60;0.63;;;;;;;20.06;46.61;102753.56;16128310;19;129276;-38
2022/10/18 22:59:46;;;;;;;1.77;0.60;;;;;;;20.03;46.71;102749.28;16130062;19;129461;-40
2022/10/18 23:05:07;;;;;;;3.35;0.85;;;;;;;20.03;46.78;102748.44;16128349;19;130031;-39
2022/10/18 23:10:29;;;;;;;1.27;0.55;;;;;;;20.01;46.62;102745.84;16125846;19;129577;-38
2022/10/18 23:15:51;;;;;;;2.60;0.65;;;;;;;19.98;46.72;102738.75;16127703;19;129922;-38
2022/10/18 23:21:14;;;;;;;3.70;0.80;;;;;;;19.96;46.51;102723.38;16125217;19;129388;-38
2022/10/18 23:26:36;;;;;;;1.85;0.88;;;;;;;19.95;46.84;102727.22;16125766;19;130689;-38
2022/10/18 23:31:57;;;;;;;2.05;0.63;;;;;;;19.93;46.62;102727.44;16128983;19;129551;-38
2022/10/18 23:37:19;;;;;;;1.85;0.70;;;;;;;19.91;46.39;102732.34;16125931;19;129129;-39
2022/10/18 23:42:41;;;;;;;4.60;0.70;;;;;;;19.90;46.58;102727.88;16128222;19;129843;-38
2022/10/18 23:48:02;;;;;;;1.50;0.55;;;;;;;19.90;46.85;102740.88;16126764;19;129500;-38
2022/10/18 23:53:24;;;;;;;2.45;0.60;;;;;;;19.87;46.70;102744.94;16126653;19;129679;-38
2022/10/18 23:58:46;;;;;;;1.08;0.60;;;;;;;19.87;46.41;102736.59;16126815;19;129785;-38
